createdAt,value
2023-02-24T00:02:06.089Z,25.80
2023-02-24T00:04:39.756Z,23.17
2023-02-24T00:07:12.801Z,26.67
2023-02-24T00:09:40.957Z,24.83
2023-02-24T00:12:13.365Z,26.90
2023-02-24T00:14:42.803Z,26.70
2023-02-24T00:17:12.310Z,28.65
2023-02-24T00:19:39.268Z,32.58
2023-02-24T00:22:08.433Z,32.88
2023-02-24T00:24:36.288Z,27.95
2023-02-24T00:27:08.338Z,29.15
2023-02-24T00:29:37.811Z,31.27
2023-02-24T00:32:08.333Z,29.13
2023-02-24T00:34:37.718Z,28.27
2023-02-24T00:37:07.113Z,28.10
2023-02-24T00:39:35.415Z,30.98
2023-02-24T00:42:06.846Z,29.42
2023-02-24T00:44:35.070Z,29.80
2023-02-24T00:47:02.762Z,28.05
2023-02-24T00:49:29.921Z,32.40
2023-02-24T00:51:57.080Z,27.38
2023-02-24T00:54:27.496Z,28.70
2023-02-24T00:56:55.495Z,30.60
2023-02-24T00:59:24.197Z,31.85
2023-02-24T01:01:51.711Z,28.27
2023-02-24T01:04:20.164Z,31.48
2023-02-24T01:06:50.310Z,30.50
2023-02-24T01:09:20.722Z,30.17
2023-02-24T01:12:01.914Z,32.83
2023-02-24T01:14:31.612Z,35.05
2023-02-24T01:16:58.769Z,38.97
2023-02-24T01:19:31.705Z,29.25
2023-02-24T01:22:01.231Z,35.92
2023-02-24T01:24:54.234Z,34.67
2023-02-24T01:27:21.122Z,36.25
2023-02-24T01:29:48.831Z,35.50
2023-02-24T01:32:19.479Z,38.90
2023-02-24T01:37:16.629Z,37.75
2023-02-24T01:39:47.059Z,34.97
2023-02-24T01:42:21.153Z,33.15
2023-02-24T01:44:48.178Z,35.28
2023-02-24T01:47:22.972Z,33.97
2023-02-24T01:49:54.054Z,34.45
2023-02-24T01:52:23.715Z,36.70
2023-02-24T01:55:04.043Z,38.03
2023-02-24T01:57:34.990Z,34.88
2023-02-24T02:00:19.650Z,38.88
2023-02-24T02:02:52.524Z,35.47
2023-02-24T02:05:19.518Z,35.75
2023-02-24T02:07:46.538Z,35.55
2023-02-24T02:10:14.258Z,32.65
2023-02-24T02:12:44.600Z,33.47
2023-02-24T02:15:20.391Z,35.63
2023-02-24T02:18:02.840Z,31.70
2023-02-24T02:21:05.224Z,36.92
2023-02-24T02:23:57.996Z,34.90
2023-02-24T02:26:32.606Z,34.97
2023-02-24T02:29:18.095Z,34.60
2023-02-24T02:32:05.585Z,34.97
2023-02-24T02:35:03.734Z,32.15
2023-02-24T02:37:33.288Z,37.90
2023-02-24T02:40:23.392Z,35.13
2023-02-24T02:43:14.322Z,35.38
2023-02-24T02:45:51.615Z,33.47
2023-02-24T02:48:31.263Z,36.53
2023-02-24T02:51:06.995Z,33.70
2023-02-24T02:53:57.211Z,35.30
2023-02-24T02:56:36.637Z,35.23
2023-02-24T02:59:05.508Z,35.03
2023-02-24T03:01:37.765Z,34.25
2023-02-24T03:04:07.451Z,36.33
2023-02-24T03:06:36.830Z,33.65
2023-02-24T03:09:16.066Z,37.13
2023-02-24T03:11:55.921Z,36.05
2023-02-24T03:14:28.347Z,38.72
2023-02-24T03:16:57.727Z,34.88
2023-02-24T03:19:33.449Z,33.78
2023-02-24T03:22:22.062Z,34.45
2023-02-24T03:24:49.057Z,35.85
2023-02-24T03:27:27.583Z,34.00
2023-02-24T03:30:13.124Z,37.75
2023-02-24T03:32:57.772Z,38.30
2023-02-24T03:35:29.283Z,36.15
2023-02-24T03:37:59.452Z,39.88
2023-02-24T03:40:36.208Z,32.28
2023-02-24T03:43:26.308Z,39.22
2023-02-24T03:45:54.740Z,35.88
2023-02-24T03:48:22.657Z,34.88
2023-02-24T03:50:49.770Z,37.13
2023-02-24T03:53:30.924Z,41.58
2023-02-24T03:56:00.883Z,40.47
2023-02-24T03:58:43.135Z,39.63
2023-02-24T04:01:16.191Z,42.08
2023-02-24T04:04:13.535Z,40.67
2023-02-24T04:06:41.848Z,38.75
2023-02-24T04:09:33.387Z,37.85
2023-02-24T04:12:09.488Z,38.63
2023-02-24T04:14:45.491Z,37.30
2023-02-24T04:17:26.872Z,35.70
2023-02-24T04:19:58.182Z,40.33
2023-02-24T04:22:27.201Z,42.88
2023-02-24T04:24:59.814Z,42.35
2023-02-24T04:27:28.495Z,41.33
2023-02-24T04:30:00.182Z,39.97
2023-02-24T04:32:29.795Z,39.35
2023-02-24T04:35:09.593Z,40.05
2023-02-24T04:37:40.200Z,37.10
2023-02-24T04:40:13.336Z,37.92
2023-02-24T04:42:49.323Z,36.63
2023-02-24T04:45:27.981Z,39.53
2023-02-24T04:48:01.056Z,39.40
2023-02-24T04:50:30.850Z,38.80
2023-02-24T04:53:07.296Z,39.58
2023-02-24T04:55:42.538Z,43.20
2023-02-24T04:58:19.335Z,37.22
2023-02-24T05:00:49.130Z,44.15
2023-02-24T05:03:17.377Z,45.38
2023-02-24T05:05:52.244Z,41.05
2023-02-24T05:08:20.018Z,43.40
2023-02-24T05:10:47.421Z,46.70
2023-02-24T05:13:17.324Z,46.95
2023-02-24T05:15:46.018Z,45.22
2023-02-24T05:18:17.203Z,48.03
2023-02-24T05:21:06.687Z,52.80
2023-02-24T05:23:44.545Z,55.90
2023-02-24T05:26:17.308Z,57.55
2023-02-24T05:28:49.374Z,58.20
2023-02-24T05:31:20.327Z,61.15
2023-02-24T05:33:54.641Z,57.83
2023-02-24T05:36:22.494Z,56.88
2023-02-24T05:38:56.572Z,53.15
2023-02-24T05:41:32.688Z,51.05
2023-02-24T05:44:02.599Z,59.85
2023-02-24T05:46:32.779Z,58.08
2023-02-24T05:49:09.063Z,66.78
2023-02-24T05:51:43.490Z,61.25
2023-02-24T05:54:13.312Z,60.22
2023-02-24T05:56:44.560Z,57.20
2023-02-24T05:59:12.884Z,60.97
2023-02-24T06:01:41.787Z,53.63
2023-02-24T06:04:09.948Z,63.13
2023-02-24T06:06:40.749Z,63.45
2023-02-24T06:09:11.111Z,66.82
2023-02-24T06:11:40.752Z,61.55
2023-02-24T06:14:09.259Z,65.47
2023-02-24T06:16:40.073Z,66.38
2023-02-24T06:19:08.328Z,66.15
2023-02-24T06:21:41.461Z,65.80
2023-02-24T06:24:18.668Z,68.72
2023-02-24T06:26:46.681Z,71.72
2023-02-24T06:29:18.347Z,71.30
2023-02-24T06:31:45.776Z,74.47
2023-02-24T06:34:18.444Z,72.65
2023-02-24T06:36:47.066Z,71.57
2023-02-24T06:39:14.689Z,69.90
2023-02-24T06:41:42.842Z,73.97
2023-02-24T06:44:09.853Z,74.28
2023-02-24T06:46:37.239Z,75.75
2023-02-24T06:49:04.611Z,72.40
2023-02-24T06:51:32.011Z,77.10
2023-02-24T06:53:59.781Z,74.57
2023-02-24T06:56:27.694Z,77.05
2023-02-24T06:58:56.937Z,88.20
2023-02-24T07:01:26.522Z,76.95
2023-02-24T07:04:08.047Z,78.57
2023-02-24T07:06:38.421Z,71.18
2023-02-24T07:09:09.172Z,76.05
2023-02-24T07:11:37.210Z,75.95
2023-02-24T07:14:07.911Z,82.57
2023-02-24T07:16:36.371Z,91.57
2023-02-24T07:19:13.864Z,86.75
2023-02-24T07:22:00.076Z,88.90
2023-02-24T07:24:33.687Z,89.07
2023-02-24T07:27:04.661Z,80.07
2023-02-24T07:32:03.567Z,73.63
2023-02-24T07:34:32.080Z,78.43
2023-02-24T07:36:59.227Z,78.47
2023-02-24T07:39:26.385Z,79.28
2023-02-24T07:41:57.254Z,82.82
2023-02-24T07:44:24.597Z,83.45
2023-02-24T07:46:52.398Z,73.40
2023-02-24T07:49:26.119Z,81.30
2023-02-24T07:51:57.751Z,81.90
2023-02-24T07:54:27.859Z,70.18
2023-02-24T07:56:59.242Z,67.73
2023-02-24T07:59:29.468Z,72.90
2023-02-24T08:01:57.208Z,68.28
2023-02-24T08:04:30.164Z,63.08
2023-02-24T08:06:59.093Z,69.00
2023-02-24T08:09:46.863Z,64.10
2023-02-24T08:12:21.589Z,64.05
2023-02-24T08:14:52.100Z,64.90
2023-02-24T08:17:21.214Z,64.10
2023-02-24T08:19:49.828Z,64.78
2023-02-24T08:22:20.394Z,65.55
2023-02-24T08:25:00.776Z,59.03
2023-02-24T08:27:32.346Z,62.35
2023-02-24T08:30:03.587Z,59.33
2023-02-24T08:32:37.834Z,62.67
2023-02-24T08:35:15.355Z,60.65
2023-02-24T08:37:49.127Z,58.42
2023-02-24T08:40:34.365Z,62.70
2023-02-24T08:43:17.045Z,61.10
2023-02-24T08:45:56.726Z,58.83
2023-02-24T08:48:31.144Z,65.03
2023-02-24T08:51:01.053Z,61.28
2023-02-24T08:53:34.108Z,65.05
2023-02-24T08:56:09.772Z,56.92
2023-02-24T08:58:48.996Z,56.90
2023-02-24T09:01:20.895Z,65.60
2023-02-24T09:03:50.517Z,57.20
2023-02-24T09:06:25.487Z,58.10
2023-02-24T09:09:15.761Z,60.78
2023-02-24T09:11:44.873Z,62.60
2023-02-24T09:14:32.224Z,63.78
2023-02-24T09:17:02.630Z,62.13
2023-02-24T09:19:46.360Z,58.63
2023-02-24T09:22:21.105Z,61.03
2023-02-24T09:24:51.226Z,54.75
2023-02-24T09:27:18.194Z,58.55
2023-02-24T09:29:50.921Z,55.35
2023-02-24T09:32:18.033Z,61.60
2023-02-24T09:34:44.998Z,51.35
2023-02-24T09:37:25.712Z,50.70
2023-02-24T09:39:56.373Z,49.17
2023-02-24T09:42:29.241Z,51.30
2023-02-24T09:45:11.583Z,50.90
2023-02-24T09:47:54.983Z,49.65
2023-02-24T09:51:02.558Z,49.95
2023-02-24T09:53:41.588Z,47.70
2023-02-24T09:56:16.196Z,42.75
2023-02-24T09:58:53.249Z,42.13
2023-02-24T10:01:31.105Z,34.75
2023-02-24T10:04:21.184Z,32.55
2023-02-24T10:07:05.350Z,32.67
2023-02-24T10:09:52.463Z,38.80
2023-02-24T10:12:34.117Z,36.28
2023-02-24T10:15:20.860Z,39.70
2023-02-24T10:17:55.590Z,35.70
2023-02-24T10:20:45.843Z,36.05
2023-02-24T10:23:33.077Z,34.93
2023-02-24T10:26:07.732Z,32.47
2023-02-24T10:28:52.169Z,36.03
2023-02-24T10:31:46.153Z,36.55
2023-02-24T10:34:25.337Z,37.97
2023-02-24T10:36:52.936Z,35.88
2023-02-24T10:39:26.103Z,43.65
2023-02-24T10:41:59.326Z,37.53
2023-02-24T10:44:36.348Z,40.33
2023-02-24T10:47:14.143Z,36.13
2023-02-24T10:49:57.263Z,37.67
2023-02-24T10:53:11.349Z,35.63
2023-02-24T10:55:45.303Z,36.70
2023-02-24T10:59:06.749Z,45.63
2023-02-24T11:05:04.526Z,45.40
2023-02-24T11:07:53.723Z,50.95
2023-02-24T11:10:26.487Z,54.20
2023-02-24T11:13:13.799Z,61.75
2023-02-24T11:16:01.889Z,50.08
2023-02-24T11:18:30.819Z,62.78
2023-02-24T11:21:12.345Z,60.78
2023-02-24T11:23:45.853Z,50.25
2023-02-24T11:26:27.424Z,42.63
2023-02-24T11:29:07.191Z,44.95
2023-02-24T11:31:52.230Z,47.85
2023-02-24T11:34:30.937Z,54.42
2023-02-24T11:37:20.538Z,54.22
2023-02-24T11:39:55.370Z,50.75
2023-02-24T11:42:31.338Z,53.30
2023-02-24T11:45:24.060Z,46.72
2023-02-24T11:48:16.082Z,50.28
2023-02-24T11:50:51.937Z,53.97
2023-02-24T11:53:46.856Z,51.17
2023-02-24T11:56:21.774Z,41.53
2023-02-24T11:59:07.174Z,44.85
2023-02-24T12:01:47.361Z,49.38
2023-02-24T12:04:23.642Z,49.30
2023-02-24T12:07:20.902Z,49.17
2023-02-24T12:10:10.648Z,43.67
2023-02-24T12:13:03.133Z,61.13
2023-02-24T12:15:35.379Z,61.05
2023-02-24T12:18:07.160Z,60.75
2023-02-24T12:20:47.047Z,57.83
2023-02-24T12:23:33.121Z,65.60
2023-02-24T12:26:20.801Z,69.15
2023-02-24T12:28:53.536Z,66.20
2023-02-24T12:31:41.836Z,60.60
2023-02-24T12:34:36.133Z,61.25
2023-02-24T12:37:30.496Z,55.90
2023-02-24T12:40:16.107Z,61.53
2023-02-24T12:42:50.915Z,54.38
2023-02-24T12:45:26.713Z,60.33
2023-02-24T12:48:05.627Z,54.13
2023-02-24T12:50:47.344Z,54.47
2023-02-24T12:53:52.696Z,54.47
2023-02-24T12:56:27.955Z,52.28
2023-02-24T12:59:00.719Z,57.47
2023-02-24T13:01:56.410Z,52.83
2023-02-24T13:04:48.802Z,60.80
2023-02-24T13:07:35.829Z,60.78
2023-02-24T13:10:11.427Z,53.88
2023-02-24T13:12:57.369Z,58.47
2023-02-24T13:15:27.402Z,53.33
2023-02-24T13:17:58.008Z,49.25
2023-02-24T13:20:37.296Z,48.70
2023-02-24T13:23:21.176Z,48.80
2023-02-24T13:25:53.689Z,42.13
2023-02-24T13:28:33.242Z,44.85
2023-02-24T13:31:05.142Z,47.33
2023-02-24T13:33:40.835Z,48.15
2023-02-24T13:36:22.507Z,56.45
2023-02-24T13:39:05.877Z,64.90
2023-02-24T13:41:32.780Z,57.97
2023-02-24T13:44:20.340Z,55.17
2023-02-24T13:46:53.377Z,61.15
2023-02-24T13:49:59.429Z,54.53
2023-02-24T13:52:38.484Z,59.35
2023-02-24T13:55:34.376Z,69.63
2023-02-24T13:58:38.170Z,60.05
2023-02-24T14:01:14.486Z,56.28
2023-02-24T14:03:44.045Z,54.28
2023-02-24T14:06:23.143Z,47.95
2023-02-24T14:08:56.215Z,57.50
2023-02-24T14:11:28.524Z,51.97
2023-02-24T14:13:57.533Z,53.03
2023-02-24T14:16:29.230Z,60.45
2023-02-24T14:18:59.479Z,50.80
2023-02-24T14:21:28.937Z,47.45
2023-02-24T14:24:00.839Z,44.13
2023-02-24T14:26:30.413Z,50.75
2023-02-24T14:29:03.518Z,45.00
2023-02-24T14:31:31.321Z,44.75
2023-02-24T14:34:01.665Z,47.45
2023-02-24T14:36:33.325Z,39.83
2023-02-24T14:39:19.864Z,42.95
2023-02-24T14:41:47.947Z,50.92
2023-02-24T14:44:41.963Z,50.05
2023-02-24T14:47:12.040Z,44.70
2023-02-24T14:49:38.894Z,46.27
2023-02-24T14:52:23.849Z,48.63
2023-02-24T14:54:57.145Z,44.67
2023-02-24T14:57:31.998Z,44.63
2023-02-24T15:00:12.917Z,51.63
2023-02-24T15:02:46.683Z,47.60
2023-02-24T15:05:13.740Z,52.75
2023-02-24T15:07:45.393Z,54.33
2023-02-24T15:10:26.659Z,57.88
2023-02-24T15:13:10.752Z,63.38
2023-02-24T15:15:42.879Z,60.90
2023-02-24T15:18:27.182Z,66.03
2023-02-24T15:21:05.977Z,83.65
2023-02-24T15:23:35.801Z,96.40
2023-02-24T15:26:04.549Z,99.40
2023-02-24T15:28:37.399Z,81.15
2023-02-24T15:31:19.905Z,97.50
2023-02-24T15:33:59.995Z,122.55
2023-02-24T15:36:36.665Z,128.40
2023-02-24T15:39:07.037Z,109.65
2023-02-24T15:41:45.148Z,108.60
2023-02-24T15:44:32.838Z,110.05
2023-02-24T15:47:12.005Z,99.85
2023-02-24T15:49:40.381Z,100.45
2023-02-24T15:52:10.849Z,96.85
2023-02-24T15:54:42.489Z,113.82
2023-02-24T15:57:16.647Z,112.57
2023-02-24T15:59:44.564Z,96.93
2023-02-24T16:02:20.000Z,108.95
2023-02-24T16:04:48.312Z,112.55
2023-02-24T16:07:21.090Z,115.57
2023-02-24T16:09:50.964Z,115.18
2023-02-24T16:12:22.855Z,99.32
2023-02-24T16:14:55.912Z,112.20
2023-02-24T16:17:29.359Z,100.88
2023-02-24T16:19:57.012Z,110.65
2023-02-24T16:22:24.680Z,110.13
2023-02-24T16:24:51.885Z,120.18
2023-02-24T16:27:23.209Z,125.68
2023-02-24T16:29:51.234Z,124.38
2023-02-24T16:32:22.294Z,113.38
2023-02-24T16:34:53.156Z,120.35
2023-02-24T16:37:22.861Z,102.90
2023-02-24T16:39:50.198Z,101.93
2023-02-24T16:42:18.283Z,130.98
2023-02-24T16:44:48.888Z,124.53
2023-02-24T16:47:22.422Z,107.57
2023-02-24T16:49:49.698Z,136.40
2023-02-24T16:52:20.760Z,134.80
2023-02-24T16:57:15.455Z,107.88
2023-02-24T16:59:42.471Z,138.30
2023-02-24T17:02:27.814Z,123.72
2023-02-24T17:04:55.306Z,125.22
2023-02-24T17:07:22.435Z,128.55
2023-02-24T17:09:49.358Z,122.22
2023-02-24T17:12:21.696Z,146.10
2023-02-24T17:14:49.023Z,126.05
2023-02-24T17:17:18.428Z,111.93
2023-02-24T17:19:45.387Z,102.00
2023-02-24T17:22:12.236Z,124.93
2023-02-24T17:24:39.134Z,120.80
2023-02-24T17:27:07.868Z,153.32
2023-02-24T17:29:34.752Z,128.43
2023-02-24T17:32:01.915Z,138.68
2023-02-24T17:34:28.888Z,163.20
2023-02-24T17:36:55.799Z,158.73
2023-02-24T17:39:22.823Z,128.95
2023-02-24T17:41:49.733Z,134.73
2023-02-24T17:44:16.670Z,137.82
2023-02-24T17:46:43.717Z,127.45
2023-02-24T17:49:10.633Z,139.48
2023-02-24T17:51:37.566Z,128.95
2023-02-24T17:54:04.566Z,109.63
2023-02-24T17:56:31.488Z,125.18
2023-02-24T17:59:01.073Z,128.98
2023-02-24T18:01:28.475Z,174.55
2023-02-24T18:03:57.535Z,132.55
2023-02-24T18:06:25.387Z,103.80
2023-02-24T18:08:52.351Z,171.38
2023-02-24T18:11:20.341Z,119.57
2023-02-24T18:13:50.889Z,96.88
2023-02-24T18:16:18.001Z,96.88
2023-02-24T18:18:45.039Z,135.85
2023-02-24T18:21:12.124Z,100.18
2023-02-24T18:23:40.595Z,118.20
2023-02-24T18:26:09.637Z,82.78
2023-02-24T18:28:36.906Z,89.38
2023-02-24T18:31:16.164Z,90.95
2023-02-24T18:33:43.569Z,98.65
2023-02-24T18:36:11.420Z,97.82
2023-02-24T18:38:38.336Z,90.38
2023-02-24T18:41:08.167Z,100.53
2023-02-24T18:43:35.840Z,105.50
2023-02-24T18:46:05.967Z,94.53
2023-02-24T18:48:34.620Z,106.10
2023-02-24T18:51:01.860Z,90.38
2023-02-24T18:53:31.662Z,98.93
2023-02-24T18:56:01.064Z,84.78
2023-02-24T18:58:31.294Z,96.25
2023-02-24T19:00:58.227Z,83.53
2023-02-24T19:03:25.492Z,91.20
2023-02-24T19:05:52.517Z,92.32
2023-02-24T19:08:19.449Z,88.45
2023-02-24T19:10:46.496Z,83.10
2023-02-24T19:13:13.466Z,86.68
2023-02-24T19:15:40.620Z,88.22
2023-02-24T19:18:07.601Z,85.40
2023-02-24T19:20:34.545Z,80.07
2023-02-24T19:23:01.616Z,88.25
2023-02-24T19:25:28.504Z,69.40
2023-02-24T19:27:55.419Z,69.13
2023-02-24T19:30:22.287Z,68.65
2023-02-24T19:32:49.686Z,62.28
2023-02-24T19:35:16.876Z,58.60
2023-02-24T19:37:43.861Z,68.78
2023-02-24T19:40:11.486Z,74.03
2023-02-24T19:42:38.632Z,75.55
2023-02-24T19:45:06.127Z,62.83
2023-02-24T19:47:33.088Z,60.40
2023-02-24T19:49:59.991Z,58.38
2023-02-24T19:52:26.957Z,69.40
2023-02-24T19:54:54.401Z,66.90
2023-02-24T19:57:21.308Z,68.78
2023-02-24T19:59:51.918Z,61.65
2023-02-24T20:02:19.142Z,61.65
2023-02-24T20:04:46.220Z,59.95
2023-02-24T20:07:13.157Z,64.65
2023-02-24T20:09:42.819Z,61.55
2023-02-24T20:12:10.280Z,71.30
2023-02-24T20:14:37.195Z,68.28
2023-02-24T20:17:04.348Z,64.32
2023-02-24T20:19:33.611Z,61.08
2023-02-24T20:22:01.068Z,59.92
2023-02-24T20:24:27.953Z,60.25
2023-02-24T20:26:54.876Z,64.18
2023-02-24T20:29:22.067Z,72.57
2023-02-24T20:31:49.797Z,74.57
2023-02-24T20:34:17.051Z,64.63
2023-02-24T20:36:44.448Z,57.10
2023-02-24T20:39:14.767Z,81.93
2023-02-24T20:41:41.857Z,75.97
2023-02-24T20:44:09.288Z,75.40
2023-02-24T20:46:36.364Z,72.47
2023-02-24T20:49:08.947Z,82.90
2023-02-24T20:51:37.507Z,89.85
2023-02-24T20:54:06.146Z,75.85
2023-02-24T20:56:36.709Z,79.95
2023-02-24T20:59:18.589Z,92.70
2023-02-24T21:01:47.728Z,80.53
2023-02-24T21:04:18.744Z,89.85
2023-02-24T21:06:48.050Z,102.63
2023-02-24T21:09:15.747Z,85.57
2023-02-24T21:11:42.747Z,115.38
2023-02-24T21:14:17.541Z,120.88
2023-02-24T21:16:46.324Z,122.15
2023-02-24T21:19:13.833Z,119.80
2023-02-24T21:21:40.766Z,122.97
2023-02-24T21:24:08.719Z,129.55
2023-02-24T21:26:35.625Z,146.98
2023-02-24T21:29:02.583Z,123.45
2023-02-24T21:31:29.609Z,184.07
2023-02-24T21:33:56.895Z,183.93
2023-02-24T21:36:26.240Z,200.70
2023-02-24T21:38:55.121Z,171.77
2023-02-24T21:41:23.793Z,130.55
2023-02-24T21:43:55.277Z,176.30
2023-02-24T21:46:24.590Z,182.93
2023-02-24T21:48:56.305Z,162.85
2023-02-24T21:51:24.973Z,149.63
2023-02-24T21:53:55.052Z,153.25
2023-02-24T21:56:24.962Z,140.07
2023-02-24T21:58:56.214Z,127.75
2023-02-24T22:01:54.574Z,116.50
2023-02-24T22:04:22.094Z,96.85
2023-02-24T22:06:49.063Z,87.95
2023-02-24T22:09:19.950Z,97.82
2023-02-24T22:11:48.673Z,101.25
2023-02-24T22:14:16.133Z,100.05
2023-02-24T22:16:43.929Z,121.75
2023-02-24T22:19:11.647Z,86.15
2023-02-24T22:21:42.567Z,104.25
2023-02-24T22:26:40.223Z,96.68
2023-02-24T22:29:07.724Z,96.35
2023-02-24T22:31:36.829Z,91.82
2023-02-24T22:34:04.679Z,102.88
2023-02-24T22:36:34.172Z,95.68
2023-02-24T22:39:02.026Z,96.68
2023-02-24T22:41:31.526Z,91.75
2023-02-24T22:43:59.320Z,96.90
2023-02-24T22:46:35.702Z,81.80
2023-02-24T22:49:02.951Z,78.68
2023-02-24T22:51:29.967Z,92.13
2023-02-24T22:53:57.017Z,75.70
2023-02-24T22:56:26.604Z,77.38
2023-02-24T22:58:53.569Z,78.65
2023-02-24T23:01:25.240Z,70.15
2023-02-24T23:03:52.782Z,71.30
2023-02-24T23:06:23.382Z,65.47
2023-02-24T23:08:51.847Z,74.57
2023-02-24T23:11:25.096Z,65.40
2023-02-24T23:13:52.181Z,64.75
2023-02-24T23:16:22.313Z,65.25
2023-02-24T23:18:53.980Z,64.55
2023-02-24T23:21:26.576Z,57.60
2023-02-24T23:23:56.985Z,58.42
2023-02-24T23:26:40.594Z,57.03
2023-02-24T23:29:08.516Z,54.38
2023-02-24T23:31:35.839Z,57.25
2023-02-24T23:34:07.145Z,61.00
2023-02-24T23:36:36.092Z,51.88
2023-02-24T23:39:04.428Z,53.40
2023-02-24T23:41:31.802Z,54.05
2023-02-24T23:43:59.042Z,49.22
2023-02-24T23:46:26.026Z,49.05
2023-02-24T23:48:53.952Z,56.65
2023-02-24T23:51:21.302Z,44.83
2023-02-24T23:53:48.528Z,38.17
2023-02-24T23:56:16.869Z,44.63
2023-02-24T23:58:43.870Z,46.70
